createdAt,value
2023-04-16T00:02:30.106Z,25.80
2023-04-16T00:05:16.784Z,25.97
2023-04-16T00:08:05.038Z,27.13
2023-04-16T00:10:51.957Z,28.10
2023-04-16T00:13:38.573Z,22.87
2023-04-16T00:16:25.520Z,21.60
2023-04-16T00:19:12.370Z,22.73
2023-04-16T00:21:59.276Z,29.23
2023-04-16T00:24:47.361Z,26.97
2023-04-16T00:27:34.175Z,25.93
2023-04-16T00:30:21.112Z,27.63
2023-04-16T00:33:09.422Z,25.80
2023-04-16T00:35:56.163Z,27.17
2023-04-16T00:38:42.932Z,22.90
2023-04-16T00:41:31.218Z,27.10
2023-04-16T00:44:17.862Z,20.73
2023-04-16T00:47:05.280Z,25.57
2023-04-16T00:49:56.404Z,25.10
2023-04-16T00:52:44.226Z,24.97
2023-04-16T00:55:30.985Z,26.07
2023-04-16T00:58:19.595Z,26.57
2023-04-16T01:01:06.855Z,26.50
2023-04-16T01:03:53.426Z,28.97
2023-04-16T01:06:40.041Z,26.70
2023-04-16T01:09:26.840Z,26.37
2023-04-16T01:12:13.868Z,24.87
2023-04-16T01:15:01.727Z,23.20
2023-04-16T01:17:48.891Z,27.13
2023-04-16T01:20:37.666Z,29.60
2023-04-16T01:23:24.477Z,29.10
2023-04-16T01:26:11.181Z,29.10
2023-04-16T01:28:57.974Z,28.87
2023-04-16T01:31:46.740Z,30.97
2023-04-16T01:34:41.359Z,29.83
2023-04-16T01:37:32.041Z,28.43
2023-04-16T01:40:18.698Z,30.17
2023-04-16T01:43:05.849Z,32.53
2023-04-16T01:45:53.626Z,29.20
2023-04-16T01:48:40.582Z,29.57
2023-04-16T01:51:27.438Z,33.77
2023-04-16T01:54:15.475Z,27.23
2023-04-16T01:57:03.228Z,36.40
2023-04-16T01:59:49.803Z,31.07
2023-04-16T02:02:37.461Z,31.40
2023-04-16T02:05:24.484Z,30.07
2023-04-16T02:08:11.357Z,27.23
2023-04-16T02:11:01.074Z,29.77
2023-04-16T02:13:47.786Z,31.67
2023-04-16T02:16:35.910Z,32.23
2023-04-16T02:19:31.379Z,28.80
2023-04-16T02:22:18.291Z,29.10
2023-04-16T02:25:05.664Z,33.23
2023-04-16T02:27:53.838Z,30.63
2023-04-16T02:30:50.204Z,28.97
2023-04-16T02:33:38.452Z,28.00
2023-04-16T02:36:25.699Z,29.87
2023-04-16T02:39:15.400Z,35.63
2023-04-16T02:42:02.764Z,33.23
2023-04-16T02:44:50.938Z,32.47
2023-04-16T02:47:37.793Z,38.67
2023-04-16T02:50:24.490Z,33.27
2023-04-16T02:53:11.662Z,33.37
2023-04-16T02:55:58.559Z,30.60
2023-04-16T02:58:45.123Z,30.43
2023-04-16T03:01:33.305Z,36.40
2023-04-16T03:04:20.104Z,31.27
2023-04-16T03:07:06.857Z,36.33
2023-04-16T03:09:53.549Z,38.20
2023-04-16T03:12:40.672Z,38.07
2023-04-16T03:15:27.755Z,31.47
2023-04-16T03:18:15.873Z,33.83
2023-04-16T03:21:02.553Z,31.60
2023-04-16T03:23:49.366Z,36.17
2023-04-16T03:26:36.159Z,31.83
2023-04-16T03:29:22.808Z,34.03
2023-04-16T03:32:09.680Z,41.77
2023-04-16T03:34:58.539Z,33.23
2023-04-16T03:37:45.208Z,28.13
2023-04-16T03:40:32.438Z,36.63
2023-04-16T03:43:20.779Z,33.87
2023-04-16T03:46:07.944Z,39.13
2023-04-16T03:48:54.673Z,35.43
2023-04-16T03:51:43.356Z,30.83
2023-04-16T03:54:30.783Z,39.30
2023-04-16T03:57:28.187Z,34.27
2023-04-16T04:00:19.861Z,33.97
2023-04-16T04:03:29.677Z,36.27
2023-04-16T04:06:16.658Z,37.13
2023-04-16T04:09:05.131Z,32.93
2023-04-16T04:11:52.681Z,35.13
2023-04-16T04:14:40.136Z,37.10
2023-04-16T04:17:27.058Z,30.57
2023-04-16T04:20:13.889Z,33.17
2023-04-16T04:23:04.020Z,31.57
2023-04-16T04:25:52.145Z,39.53
2023-04-16T04:28:38.852Z,37.73
2023-04-16T04:31:25.705Z,36.00
2023-04-16T04:34:12.353Z,36.20
2023-04-16T04:36:59.099Z,36.37
2023-04-16T04:39:46.706Z,36.67
2023-04-16T04:42:34.480Z,38.40
2023-04-16T04:45:21.282Z,37.77
2023-04-16T04:48:08.320Z,34.37
2023-04-16T04:50:54.996Z,37.17
2023-04-16T04:53:41.754Z,37.37
2023-04-16T04:56:28.596Z,33.07
2023-04-16T04:59:16.656Z,34.90
2023-04-16T05:02:04.423Z,33.80
2023-04-16T05:04:51.219Z,34.00
2023-04-16T05:07:37.892Z,32.07
2023-04-16T05:10:24.581Z,40.70
2023-04-16T05:13:11.302Z,33.17
2023-04-16T05:15:59.805Z,37.37
2023-04-16T05:18:46.249Z,36.60
2023-04-16T05:21:34.858Z,31.77
2023-04-16T05:24:24.604Z,35.47
2023-04-16T05:27:14.088Z,30.50
2023-04-16T05:30:04.212Z,29.53
2023-04-16T05:32:52.940Z,40.20
2023-04-16T05:35:39.528Z,37.17
2023-04-16T05:38:26.397Z,32.93
2023-04-16T05:41:13.190Z,34.40
2023-04-16T05:44:05.129Z,35.27
2023-04-16T05:46:52.696Z,32.10
2023-04-16T05:49:40.826Z,38.53
2023-04-16T05:52:27.647Z,31.60
2023-04-16T05:55:14.265Z,36.30
2023-04-16T05:58:00.973Z,36.00
2023-04-16T06:00:50.435Z,31.20
2023-04-16T06:03:37.414Z,31.43
2023-04-16T06:06:27.460Z,38.83
2023-04-16T06:09:14.123Z,36.27
2023-04-16T06:12:01.168Z,40.03
2023-04-16T06:14:47.767Z,41.37
2023-04-16T06:17:34.571Z,30.77
2023-04-16T06:20:21.237Z,36.73
2023-04-16T06:23:09.567Z,37.63
2023-04-16T06:25:56.678Z,36.90
2023-04-16T06:28:43.369Z,38.70
2023-04-16T06:31:31.050Z,36.17
2023-04-16T06:34:18.062Z,33.47
2023-04-16T06:37:04.913Z,36.60
2023-04-16T06:39:53.111Z,41.63
2023-04-16T06:42:39.917Z,37.10
2023-04-16T06:45:26.795Z,35.90
2023-04-16T06:48:13.616Z,32.77
2023-04-16T06:51:01.485Z,34.70
2023-04-16T06:53:48.099Z,32.13
2023-04-16T06:56:37.531Z,41.40
2023-04-16T06:59:24.308Z,34.17
2023-04-16T07:02:11.790Z,32.60
2023-04-16T07:04:58.568Z,36.37
2023-04-16T07:07:45.302Z,37.07
2023-04-16T07:10:32.533Z,38.87
2023-04-16T07:13:20.551Z,36.63
2023-04-16T07:16:07.508Z,33.17
2023-04-16T07:18:54.180Z,35.57
2023-04-16T07:21:42.065Z,37.53
2023-04-16T07:24:28.601Z,30.47
2023-04-16T07:27:15.498Z,36.97
2023-04-16T07:30:09.682Z,32.47
2023-04-16T07:32:56.682Z,40.37
2023-04-16T07:35:43.321Z,32.50
2023-04-16T07:38:30.722Z,36.20
2023-04-16T07:41:17.350Z,35.60
2023-04-16T07:44:04.791Z,30.67
2023-04-16T07:46:52.737Z,33.23
2023-04-16T07:49:39.718Z,37.77
2023-04-16T07:52:26.823Z,30.00
2023-04-16T07:55:13.562Z,30.40
2023-04-16T07:58:00.570Z,37.40
2023-04-16T08:00:48.125Z,35.37
2023-04-16T08:03:37.266Z,37.30
2023-04-16T08:06:23.863Z,30.53
2023-04-16T08:09:10.938Z,34.03
2023-04-16T08:11:57.645Z,27.37
2023-04-16T08:14:45.127Z,28.50
2023-04-16T08:17:37.081Z,30.47
2023-04-16T08:20:29.002Z,26.17
2023-04-16T08:23:15.934Z,27.13
2023-04-16T08:26:02.688Z,29.10
2023-04-16T08:28:49.139Z,24.83
2023-04-16T08:31:36.094Z,28.83
2023-04-16T08:34:22.839Z,25.53
2023-04-16T08:37:11.040Z,29.40
2023-04-16T08:39:57.658Z,33.03
2023-04-16T08:42:49.185Z,26.30
2023-04-16T08:45:36.334Z,32.40
2023-04-16T08:48:24.126Z,31.90
2023-04-16T08:51:12.181Z,31.13
2023-04-16T08:54:03.924Z,29.37
2023-04-16T08:56:52.271Z,32.97
2023-04-16T08:59:41.279Z,32.87
2023-04-16T09:02:28.385Z,35.17
2023-04-16T09:05:18.040Z,32.13
2023-04-16T09:08:06.263Z,31.07
2023-04-16T09:10:54.743Z,33.77
2023-04-16T09:13:41.501Z,33.60
2023-04-16T09:16:31.347Z,27.33
2023-04-16T09:19:18.048Z,27.27
2023-04-16T09:22:05.009Z,32.13
2023-04-16T09:24:51.712Z,32.37
2023-04-16T09:27:40.374Z,31.37
2023-04-16T09:30:28.048Z,27.73
2023-04-16T09:33:17.516Z,26.10
2023-04-16T09:36:04.345Z,34.20
2023-04-16T09:38:52.283Z,37.27
2023-04-16T09:41:40.070Z,32.70
2023-04-16T09:44:36.299Z,33.50
2023-04-16T09:47:23.956Z,29.43
2023-04-16T09:50:17.725Z,27.73
2023-04-16T09:53:04.925Z,25.90
2023-04-16T09:55:51.768Z,23.50
2023-04-16T09:58:39.164Z,25.50
2023-04-16T10:01:27.573Z,27.73
2023-04-16T10:04:14.370Z,24.50
2023-04-16T10:07:05.584Z,25.73
2023-04-16T10:09:52.690Z,27.50
2023-04-16T10:12:39.617Z,25.17
2023-04-16T10:15:26.771Z,26.57
2023-04-16T10:18:15.897Z,29.07
2023-04-16T10:21:03.138Z,25.73
2023-04-16T10:23:49.850Z,27.37
2023-04-16T10:26:37.831Z,20.23
2023-04-16T10:29:26.498Z,25.07
2023-04-16T10:32:13.729Z,22.23
2023-04-16T10:35:01.876Z,24.77
2023-04-16T10:37:48.707Z,22.70
2023-04-16T10:40:36.467Z,18.90
2023-04-16T10:43:23.246Z,24.00
2023-04-16T10:46:24.144Z,22.10
2023-04-16T10:49:15.148Z,20.93
2023-04-16T10:52:10.664Z,19.50
2023-04-16T10:55:01.881Z,17.47
2023-04-16T10:57:53.650Z,23.37
2023-04-16T11:00:51.989Z,18.40
2023-04-16T11:03:44.873Z,17.50
2023-04-16T11:06:32.288Z,17.20
2023-04-16T11:09:49.796Z,18.60
2023-04-16T11:12:38.197Z,15.33
2023-04-16T11:15:31.261Z,16.77
2023-04-16T11:18:20.664Z,13.93
2023-04-16T11:21:10.322Z,19.40
2023-04-16T11:23:58.968Z,18.03
2023-04-16T11:26:46.861Z,16.57
2023-04-16T11:29:33.809Z,15.20
2023-04-16T11:32:23.013Z,17.43
2023-04-16T11:35:15.414Z,13.73
2023-04-16T11:38:04.243Z,14.93
2023-04-16T11:40:51.660Z,14.60
2023-04-16T11:43:39.531Z,13.90
2023-04-16T11:46:39.434Z,18.00
2023-04-16T11:49:29.729Z,13.17
2023-04-16T11:52:28.344Z,14.30
2023-04-16T11:55:15.564Z,12.73
2023-04-16T11:58:13.449Z,11.63
2023-04-16T12:01:02.913Z,12.20
2023-04-16T12:03:49.970Z,12.77
2023-04-16T12:06:36.951Z,12.50
2023-04-16T12:09:24.318Z,17.43
2023-04-16T12:12:27.564Z,14.67
2023-04-16T12:15:14.852Z,13.97
2023-04-16T12:18:09.676Z,13.87
2023-04-16T12:20:56.525Z,17.43
2023-04-16T12:23:43.287Z,13.57
2023-04-16T12:26:38.486Z,15.57
2023-04-16T12:29:27.612Z,13.33
2023-04-16T12:32:23.610Z,13.17
2023-04-16T12:35:12.085Z,13.23
2023-04-16T12:37:58.514Z,12.17
2023-04-16T12:40:45.998Z,13.67
2023-04-16T12:43:32.734Z,13.07
2023-04-16T12:46:19.486Z,13.53
2023-04-16T12:49:06.859Z,16.60
2023-04-16T12:51:55.088Z,14.60
2023-04-16T12:54:41.918Z,11.77
2023-04-16T12:57:29.575Z,13.07
2023-04-16T13:00:17.454Z,9.47
2023-04-16T13:03:04.124Z,14.47
2023-04-16T13:05:50.863Z,11.47
2023-04-16T13:08:39.246Z,12.73
2023-04-16T13:11:26.056Z,11.37
2023-04-16T13:14:12.496Z,12.67
2023-04-16T13:16:59.408Z,11.03
2023-04-16T13:19:46.156Z,11.27
2023-04-16T13:22:32.900Z,10.00
2023-04-16T13:25:21.159Z,13.07
2023-04-16T13:28:07.785Z,11.17
2023-04-16T13:30:55.577Z,14.27
2023-04-16T13:33:42.490Z,9.53
2023-04-16T13:36:30.193Z,10.07
2023-04-16T13:39:16.592Z,12.27
2023-04-16T13:42:04.838Z,12.20
2023-04-16T13:44:54.270Z,11.10
2023-04-16T13:47:42.595Z,12.07
2023-04-16T13:50:29.357Z,11.57
2023-04-16T13:53:15.910Z,10.73
2023-04-16T13:56:04.090Z,11.03
2023-04-16T13:58:52.336Z,10.00
2023-04-16T14:01:39.125Z,13.50
2023-04-16T14:04:26.180Z,13.63
2023-04-16T14:07:13.051Z,11.30
2023-04-16T14:09:59.765Z,13.47
2023-04-16T14:12:46.900Z,14.13
2023-04-16T14:15:34.876Z,15.47
2023-04-16T14:18:21.872Z,15.30
2023-04-16T14:21:08.442Z,16.27
2023-04-16T14:23:55.291Z,15.77
2023-04-16T14:26:44.164Z,15.50
2023-04-16T14:29:31.840Z,14.00
2023-04-16T14:32:20.062Z,14.70
2023-04-16T14:35:08.397Z,11.10
2023-04-16T14:37:55.438Z,12.03
2023-04-16T14:40:42.328Z,10.87
2023-04-16T14:43:29.125Z,13.03
2023-04-16T14:46:17.776Z,13.67
2023-04-16T14:49:05.897Z,15.07
2023-04-16T14:51:52.526Z,20.53
2023-04-16T14:54:39.350Z,13.73
2023-04-16T14:57:26.817Z,17.33
2023-04-16T15:00:17.302Z,13.93
2023-04-16T15:03:03.885Z,14.73
2023-04-16T15:05:55.766Z,11.93
2023-04-16T15:08:42.720Z,13.17
2023-04-16T15:11:30.259Z,14.27
2023-04-16T15:14:16.844Z,18.33
2023-04-16T15:17:04.064Z,12.80
2023-04-16T15:19:52.172Z,13.17
2023-04-16T15:22:40.890Z,14.73
2023-04-16T15:25:27.567Z,12.90
2023-04-16T15:28:16.775Z,13.40
2023-04-16T15:31:03.701Z,12.87
2023-04-16T15:33:50.600Z,11.43
2023-04-16T15:36:37.090Z,10.80
2023-04-16T15:39:25.639Z,13.43
2023-04-16T15:42:13.263Z,14.03
2023-04-16T15:44:59.783Z,12.13
2023-04-16T15:47:51.091Z,11.33
2023-04-16T15:50:37.784Z,11.37
2023-04-16T15:53:24.331Z,11.77
2023-04-16T15:56:12.600Z,11.33
2023-04-16T15:58:59.014Z,11.67
2023-04-16T16:01:45.991Z,13.27
2023-04-16T16:04:32.589Z,12.83
2023-04-16T16:07:20.138Z,14.73
2023-04-16T16:10:07.912Z,12.33
2023-04-16T16:12:57.250Z,10.67
2023-04-16T16:15:44.236Z,11.97
2023-04-16T16:18:33.003Z,12.03
2023-04-16T16:21:20.235Z,15.07
2023-04-16T16:24:07.809Z,16.80
2023-04-16T16:26:54.439Z,15.47
2023-04-16T16:29:42.741Z,15.77
2023-04-16T16:32:29.378Z,16.37
2023-04-16T16:35:16.074Z,17.53
2023-04-16T16:38:03.068Z,16.97
2023-04-16T16:40:50.077Z,13.03
2023-04-16T16:43:37.113Z,16.70
2023-04-16T16:46:25.167Z,18.00
2023-04-16T16:49:12.416Z,15.10
2023-04-16T16:52:00.182Z,11.67
2023-04-16T16:54:47.278Z,12.77
2023-04-16T16:57:35.494Z,14.13
2023-04-16T17:00:24.437Z,13.80
2023-04-16T17:03:14.299Z,12.10
2023-04-16T17:06:01.393Z,14.90
2023-04-16T17:08:48.966Z,20.77
2023-04-16T17:11:35.491Z,20.73
2023-04-16T17:14:22.237Z,17.40
2023-04-16T17:17:08.983Z,22.40
2023-04-16T17:19:57.353Z,23.17
2023-04-16T17:22:44.203Z,19.40
2023-04-16T17:25:31.107Z,17.47
2023-04-16T17:28:17.706Z,14.23
2023-04-16T17:31:04.641Z,18.47
2023-04-16T17:33:52.262Z,15.63
2023-04-16T17:36:40.960Z,13.23
2023-04-16T17:39:27.720Z,13.97
2023-04-16T17:42:14.541Z,11.40
2023-04-16T17:45:03.120Z,13.13
2023-04-16T17:47:49.769Z,12.63
2023-04-16T17:50:39.385Z,16.27
2023-04-16T17:53:27.576Z,12.43
2023-04-16T17:56:14.436Z,11.77
2023-04-16T17:59:01.461Z,11.87
2023-04-16T18:01:53.340Z,10.03
2023-04-16T18:04:42.370Z,16.37
2023-04-16T18:07:29.723Z,11.13
2023-04-16T18:10:18.378Z,9.47
2023-04-16T18:13:05.436Z,13.17
2023-04-16T18:15:53.169Z,17.87
2023-04-16T18:18:39.780Z,18.27
2023-04-16T18:21:27.528Z,16.97
2023-04-16T18:24:15.844Z,14.10
2023-04-16T18:27:04.080Z,12.50
2023-04-16T18:29:51.350Z,12.03
2023-04-16T18:32:46.827Z,11.30
2023-04-16T18:35:43.134Z,11.10
2023-04-16T18:38:31.460Z,9.60
2023-04-16T18:41:18.428Z,11.40
2023-04-16T18:44:06.513Z,11.70
2023-04-16T18:46:53.220Z,13.70
2023-04-16T18:49:39.850Z,11.53
2023-04-16T18:52:27.917Z,13.13
2023-04-16T18:55:14.798Z,13.67
2023-04-16T18:58:01.492Z,12.70
2023-04-16T19:00:54.631Z,11.63
2023-04-16T19:03:42.668Z,12.67
2023-04-16T19:06:35.361Z,11.07
2023-04-16T19:09:23.384Z,10.33
2023-04-16T19:12:10.141Z,14.43
2023-04-16T19:14:56.960Z,15.17
2023-04-16T19:17:45.035Z,13.60
2023-04-16T19:20:35.655Z,15.07
2023-04-16T19:23:22.299Z,13.60
2023-04-16T19:26:08.702Z,10.83
2023-04-16T19:28:55.368Z,15.63
2023-04-16T19:31:42.296Z,14.57
2023-04-16T19:34:31.049Z,12.63
2023-04-16T19:37:17.798Z,13.27
2023-04-16T19:40:06.043Z,13.40
2023-04-16T19:42:55.905Z,14.53
2023-04-16T19:45:44.346Z,13.63
2023-04-16T19:48:31.866Z,14.10
2023-04-16T19:51:19.747Z,15.80
2023-04-16T19:54:06.559Z,12.00
2023-04-16T19:56:53.350Z,13.00
2023-04-16T19:59:40.192Z,12.07
2023-04-16T20:02:27.083Z,15.60
2023-04-16T20:05:13.946Z,13.20
2023-04-16T20:08:02.061Z,12.60
2023-04-16T20:10:48.684Z,11.93
2023-04-16T20:13:37.597Z,11.20
2023-04-16T20:16:24.826Z,14.50
2023-04-16T20:19:11.355Z,13.17
2023-04-16T20:21:58.541Z,16.00
2023-04-16T20:24:48.200Z,14.70
2023-04-16T20:27:35.050Z,13.80
2023-04-16T20:30:22.622Z,12.67
2023-04-16T20:33:10.034Z,16.00
2023-04-16T20:35:56.854Z,14.23
2023-04-16T20:38:43.756Z,15.20
2023-04-16T20:41:31.931Z,12.43
2023-04-16T20:44:18.906Z,15.37
2023-04-16T20:47:06.006Z,13.70
2023-04-16T20:49:53.002Z,12.30
2023-04-16T20:52:39.785Z,14.33
2023-04-16T20:55:26.844Z,16.57
2023-04-16T20:58:14.782Z,12.03
2023-04-16T21:01:02.002Z,12.47
2023-04-16T21:03:48.640Z,17.20
2023-04-16T21:06:38.556Z,13.40
2023-04-16T21:09:25.449Z,15.07
2023-04-16T21:12:12.166Z,14.47
2023-04-16T21:15:00.172Z,13.60
2023-04-16T21:17:51.173Z,13.47
2023-04-16T21:20:40.341Z,13.60
2023-04-16T21:23:27.051Z,16.80
2023-04-16T21:26:18.105Z,15.07
2023-04-16T21:29:11.967Z,17.73
2023-04-16T21:32:01.170Z,17.80
2023-04-16T21:34:48.387Z,14.57
2023-04-16T21:37:36.291Z,15.57
2023-04-16T21:40:23.548Z,13.57
2023-04-16T21:43:10.261Z,16.87
2023-04-16T21:45:57.307Z,15.80
2023-04-16T21:48:45.454Z,14.10
2023-04-16T21:51:31.864Z,15.60
2023-04-16T21:54:20.253Z,15.70
2023-04-16T21:57:06.852Z,16.03
2023-04-16T21:59:53.619Z,14.13
2023-04-16T22:02:41.834Z,16.70
2023-04-16T22:05:31.728Z,15.97
2023-04-16T22:08:24.846Z,17.10
2023-04-16T22:11:11.985Z,16.70
2023-04-16T22:13:58.705Z,18.03
2023-04-16T22:16:46.084Z,13.90
2023-04-16T22:19:34.891Z,17.47
2023-04-16T22:22:23.057Z,14.77
2023-04-16T22:25:10.217Z,15.63
2023-04-16T22:27:56.757Z,15.77
2023-04-16T22:30:43.481Z,20.10
2023-04-16T22:33:30.636Z,15.17
2023-04-16T22:36:17.107Z,14.93
2023-04-16T22:39:08.555Z,17.53
2023-04-16T22:41:56.125Z,15.00
2023-04-16T22:44:42.997Z,15.33
2023-04-16T22:47:29.932Z,17.23
2023-04-16T22:50:16.803Z,19.17
2023-04-16T22:53:03.406Z,15.90
2023-04-16T22:55:51.614Z,20.20
2023-04-16T22:58:38.537Z,14.97
2023-04-16T23:01:25.142Z,18.83
2023-04-16T23:04:12.026Z,22.60
2023-04-16T23:06:58.726Z,22.00
2023-04-16T23:09:45.600Z,16.50
2023-04-16T23:12:33.866Z,15.80
2023-04-16T23:15:20.836Z,14.87
2023-04-16T23:18:07.688Z,19.43
2023-04-16T23:20:54.827Z,19.97
2023-04-16T23:23:41.648Z,18.37
2023-04-16T23:26:28.360Z,17.87
2023-04-16T23:29:16.595Z,14.83
2023-04-16T23:32:03.335Z,18.23
2023-04-16T23:34:50.227Z,17.83
2023-04-16T23:37:37.088Z,20.60
2023-04-16T23:40:23.866Z,21.97
2023-04-16T23:43:10.772Z,19.73
2023-04-16T23:45:58.813Z,18.90
2023-04-16T23:48:45.638Z,19.27
2023-04-16T23:51:32.678Z,19.03
2023-04-16T23:54:19.199Z,18.67
2023-04-16T23:57:06.048Z,17.13
2023-04-16T23:59:52.837Z,20.20
